Time;durP1;ratioP1;P1;durP2;ratioP2;P2;SDS_P1;SDS_P2;PMS_P1;PMS_P2;Temp;Humidity;BMP_temperature;BMP_pressure;BME280_temperature;BME280_humidity;BME280_pressure;Samples;Min_cycle;Max_cycle;Signal;HPM_P1;HPM_P2
2021/07/20 00:00:15;;;;;;;14.10;9.25;;;;;;;15.60;72.31;100623.09;1740373;80;25789;-78
2021/07/20 00:02:48;;;;;;;13.08;7.70;;;;;;;15.58;72.26;100618.95;1735935;81;25847;-77
2021/07/20 00:05:23;;;;;;;14.50;8.30;;;;;;;15.60;72.43;100625.79;1679169;81;25951;-77
2021/07/20 00:07:59;;;;;;;12.70;7.80;;;;;;;15.59;72.37;100621.97;1686147;81;25804;-78
2021/07/20 00:10:40;;;;;;;13.58;8.18;;;;;;;15.58;72.42;100629.23;1718744;81;28790;-78
2021/07/20 00:13:07;;;;;;;11.88;8.00;;;;;;;15.55;72.40;100626.95;1751722;80;25839;-77
2021/07/20 00:15:35;;;;;;;15.55;8.93;;;;;;;15.51;72.42;100627.09;1693952;81;26039;-78
2021/07/20 00:18:13;;;;;;;11.25;8.03;;;;;;;15.50;72.45;100635.41;1721055;81;25863;-78
2021/07/20 00:20:42;;;;;;;17.57;9.70;;;;;;;15.49;72.50;100635.09;1729975;81;25804;-78
2021/07/20 00:23:10;;;;;;;15.78;10.13;;;;;;;15.46;72.50;100633.69;1739182;81;27537;-77
2021/07/20 00:25:38;;;;;;;14.20;9.35;;;;;;;15.44;72.84;100637.93;1684672;81;25918;-78
2021/07/20 00:28:05;;;;;;;15.68;9.85;;;;;;;15.48;73.05;100636.16;1697154;81;25433;-78
2021/07/20 00:30:33;;;;;;;11.05;7.92;;;;;;;15.49;73.18;100637.28;1737004;81;26513;-77
2021/07/20 00:33:00;;;;;;;14.58;7.95;;;;;;;15.49;73.16;100639.14;1741575;81;26724;-77
2021/07/20 00:35:27;;;;;;;12.75;7.85;;;;;;;15.50;73.37;100639.47;1675211;81;27572;-78
2021/07/20 00:37:54;;;;;;;11.18;7.60;;;;;;;15.47;73.12;100639.38;1696670;80;25870;-77
2021/07/20 00:40:23;;;;;;;14.43;8.03;;;;;;;15.44;72.94;100643.33;1731368;81;25834;-77
2021/07/20 00:42:52;;;;;;;12.95;8.30;;;;;;;15.39;72.73;100645.00;1729996;81;26618;-78
2021/07/20 00:45:19;;;;;;;11.25;7.22;;;;;;;15.31;72.83;100637.17;1701568;80;25906;-78
2021/07/20 00:47:48;;;;;;;13.28;8.18;;;;;;;15.24;73.03;100635.86;1700463;81;27351;-77
2021/07/20 00:50:20;;;;;;;14.58;8.53;;;;;;;15.22;73.13;100636.59;1751637;80;25785;-77
2021/07/20 00:52:48;;;;;;;17.77;10.90;;;;;;;15.20;73.28;100635.15;1748419;80;25990;-77
2021/07/20 00:55:17;;;;;;;17.40;11.85;;;;;;;15.16;73.50;100632.03;1691113;80;26230;-78
2021/07/20 00:57:45;;;;;;;17.17;11.97;;;;;;;15.14;73.58;100630.08;1704757;80;26247;-77
2021/07/20 01:00:17;;;;;;;12.75;8.68;;;;;;;15.12;73.72;100621.92;1735213;81;28109;-78
2021/07/20 01:02:46;;;;;;;14.95;7.90;;;;;;;15.10;73.67;100624.81;1745727;80;26342;-76
2021/07/20 01:05:19;;;;;;;11.55;7.62;;;;;;;15.02;73.66;100620.18;1698702;80;25942;-78
2021/07/20 01:07:48;;;;;;;12.03;6.55;;;;;;;14.94;73.51;100620.44;1696541;82;25939;-78
2021/07/20 01:10:17;;;;;;;11.53;7.53;;;;;;;14.83;73.56;100615.19;1723216;83;25967;-77
2021/07/20 01:12:46;;;;;;;10.98;6.83;;;;;;;14.79;73.90;100614.48;1707260;81;28252;-77
2021/07/20 01:15:16;;;;;;;10.13;6.58;;;;;;;14.77;74.11;100609.31;1703923;80;25905;-78
2021/07/20 01:17:45;;;;;;;10.75;6.40;;;;;;;14.74;74.16;100608.38;1660648;81;25927;-78
2021/07/20 01:20:19;;;;;;;12.07;6.67;;;;;;;14.67;74.19;100609.75;1729322;81;26420;-77
2021/07/20 01:23:20;;;;;;;11.48;6.10;;;;;;;14.64;74.33;100610.70;1756896;80;25794;-77
2021/07/20 01:25:51;;;;;;;9.35;6.30;;;;;;;14.60;74.23;100614.87;1719723;81;28269;-78
2021/07/20 01:28:22;;;;;;;12.85;6.62;;;;;;;14.53;74.23;100611.36;1711135;81;25876;-77
2021/07/20 01:30:58;;;;;;;9.23;6.85;;;;;;;14.48;74.40;100609.80;1752061;80;25807;-78
2021/07/20 01:33:29;;;;;;;17.12;7.80;;;;;;;14.46;74.71;100610.53;1765991;80;25897;-77
2021/07/20 01:36:00;;;;;;;13.10;7.40;;;;;;;14.46;74.79;100610.02;1684225;83;26284;-77
2021/07/20 01:38:28;;;;;;;;;;;;;;;14.48;74.89;100611.15;1695682;80;27436;-77
2021/07/20 01:41:00;;;;;;;11.85;7.80;;;;;;;14.51;75.42;100609.39;1754560;80;25740;-79
2021/07/20 01:43:29;;;;;;;15.53;8.05;;;;;;;14.51;75.47;100613.44;1703694;81;26475;-78
2021/07/20 01:45:58;;;;;;;15.00;8.58;;;;;;;14.53;75.52;100607.31;1691998;82;25842;-77
2021/07/20 01:48:30;;;;;;;;;;;;;;;14.55;75.75;100603.88;1657200;81;26611;-78
2021/07/20 01:50:59;;;;;;;15.43;8.58;;;;;;;14.53;76.02;100603.27;1735366;81;33736;-77
2021/07/20 01:53:26;;;;;;;9.88;6.80;;;;;;;14.49;75.68;100604.22;1722970;80;26493;-77
2021/07/20 01:55:54;;;;;;;12.53;7.72;;;;;;;14.48;75.59;100599.02;1709432;80;26449;-77
2021/07/20 01:58:22;;;;;;;11.97;7.37;;;;;;;14.46;75.56;100597.90;1762070;80;26019;-76
2021/07/20 02:00:53;;;;;;;17.32;7.67;;;;;;;14.44;75.56;100593.23;1745807;80;26522;-78
2021/07/20 02:03:43;;;;;;;12.30;7.30;;;;;;;14.43;75.69;100597.50;1711006;81;28286;-77
2021/07/20 02:09:18;;;;;;;12.00;6.80;;;;;;;14.37;75.95;100592.96;1738266;81;25856;-77
2021/07/20 02:11:46;;;;;;;10.88;6.78;;;;;;;14.37;75.91;100591.62;1734149;81;26513;-78
2021/07/20 02:14:28;;;;;;;10.65;6.53;;;;;;;14.35;75.92;100598.55;1667610;80;25457;-77
2021/07/20 02:17:15;;;;;;;10.65;6.40;;;;;;;14.21;75.62;100600.94;1715494;81;27449;-77
2021/07/20 02:20:00;;;;;;;12.43;7.03;;;;;;;14.08;75.94;100593.39;1731780;81;25353;-77
2021/07/20 02:22:30;;;;;;;11.12;7.22;;;;;;;14.07;76.21;100601.17;1735367;80;25497;-78
2021/07/20 02:24:59;;;;;;;10.18;7.25;;;;;;;14.09;76.54;100607.17;1709329;81;26503;-78
2021/07/20 02:27:29;;;;;;;11.40;7.50;;;;;;;14.11;76.54;100607.28;1682926;81;26744;-77
2021/07/20 02:30:09;;;;;;;10.58;7.05;;;;;;;14.11;76.41;100609.98;1740379;81;27779;-78
2021/07/20 02:32:38;;;;;;;9.38;6.75;;;;;;;14.12;76.49;100608.92;1695768;82;26094;-77
2021/07/20 02:35:12;;;;;;;10.15;6.35;;;;;;;14.12;76.48;100606.23;1727904;80;25848;-78
2021/07/20 02:37:41;;;;;;;13.68;7.20;;;;;;;14.11;76.53;100611.32;1670666;81;26374;-77
2021/07/20 02:40:11;;;;;;;13.90;7.70;;;;;;;14.11;76.59;100607.80;1756431;80;25893;-77
2021/07/20 02:42:40;;;;;;;16.12;7.83;;;;;;;14.14;76.80;100616.78;1760861;80;27611;-78
2021/07/20 02:45:10;;;;;;;12.98;7.65;;;;;;;14.14;76.84;100615.44;1672515;83;25842;-77
2021/07/20 02:47:38;;;;;;;10.88;7.65;;;;;;;14.15;76.84;100619.80;1687820;81;26565;-77
2021/07/20 02:50:12;;;;;;;10.45;6.90;;;;;;;14.16;76.80;100620.09;1751517;80;26564;-78
2021/07/20 02:52:44;;;;;;;14.40;7.45;;;;;;;14.13;76.82;100616.49;1731102;81;25805;-77
2021/07/20 02:55:17;;;;;;;15.50;8.80;;;;;;;14.11;76.90;100615.88;1692335;81;28352;-77
2021/07/20 02:57:47;;;;;;;15.08;9.80;;;;;;;14.11;77.01;100619.91;1755076;80;25848;-77
2021/07/20 03:00:16;;;;;;;17.55;11.05;;;;;;;14.16;77.18;100620.09;1736133;80;26497;-78
2021/07/20 03:02:46;;;;;;;15.18;8.18;;;;;;;14.20;77.38;100625.41;1724208;81;26499;-77
2021/07/20 03:05:16;;;;;;;13.13;8.30;;;;;;;14.23;77.39;100620.92;1716449;80;25908;-78
2021/07/20 03:07:55;;;;;;;10.55;7.42;;;;;;;14.25;77.33;100620.19;1697439;81;27580;-77
2021/07/20 03:10:27;;;;;;;13.68;8.18;;;;;;;14.24;77.30;100625.29;1710141;81;25348;-77
2021/07/20 03:13:07;;;;;;;13.75;7.80;;;;;;;14.26;77.41;100630.78;1758878;80;25652;-78
2021/07/20 03:15:38;;;;;;;11.10;7.40;;;;;;;14.26;77.52;100624.56;1743517;80;25920;-78
2021/07/20 03:18:09;;;;;;;12.07;8.73;;;;;;;14.27;77.71;100634.28;1723104;80;26026;-77
2021/07/20 03:20:40;;;;;;;12.47;8.53;;;;;;;14.26;77.71;100637.52;1694600;81;27629;-77
2021/07/20 03:23:10;;;;;;;13.93;8.83;;;;;;;14.30;77.83;100637.44;1735572;81;25889;-78
2021/07/20 03:25:38;;;;;;;;;;;;;;;14.32;77.83;100634.52;1724364;81;25831;-77
2021/07/20 03:28:09;;;;;;;13.15;8.50;;;;;;;14.32;78.08;100633.17;1740962;80;26491;-78
2021/07/20 03:30:38;;;;;;;19.27;9.58;;;;;;;14.31;78.27;100631.50;1711461;81;25821;-78
2021/07/20 03:33:07;;;;;;;14.73;8.08;;;;;;;14.35;78.73;100630.88;1749222;80;27467;-78
2021/07/20 03:35:40;;;;;;;13.88;9.13;;;;;;;14.40;78.74;100636.98;1711125;81;25731;-77
2021/07/20 03:38:10;;;;;;;17.02;9.00;;;;;;;14.46;78.79;100636.98;1711560;81;25853;-77
2021/07/20 03:40:38;;;;;;;18.73;10.03;;;;;;;14.53;78.90;100637.80;1725514;80;25900;-78
2021/07/20 03:43:06;;;;;;;13.88;9.30;;;;;;;14.61;79.08;100634.86;1740630;80;25868;-77
2021/07/20 03:45:34;;;;;;;13.22;8.28;;;;;;;14.70;79.15;100646.24;1726415;81;27256;-77
2021/07/20 03:48:01;;;;;;;14.68;9.53;;;;;;;14.78;79.30;100641.95;1731826;81;25741;-77
2021/07/20 03:50:42;;;;;;;12.03;7.80;;;;;;;14.84;79.47;100638.95;1703606;82;25375;-78
2021/07/20 03:53:11;;;;;;;12.37;8.08;;;;;;;14.88;79.47;100645.57;1700157;83;26179;-76
2021/07/20 03:55:42;;;;;;;10.53;7.80;;;;;;;14.92;79.77;100639.54;1721599;81;25887;-78
2021/07/20 03:58:12;;;;;;;12.37;8.10;;;;;;;14.98;79.77;100637.84;1685690;82;28104;-77
2021/07/20 04:00:40;;;;;;;11.15;7.87;;;;;;;15.05;80.04;100648.92;1683334;81;25904;-77
2021/07/20 04:06:05;;;;;;;12.77;8.17;;;;;;;15.15;80.04;100650.63;1675399;82;25902;-78
2021/07/20 04:08:36;;;;;;;11.38;7.83;;;;;;;15.20;80.15;100654.88;1674131;83;25882;-78
2021/07/20 04:11:05;;;;;;;11.25;7.87;;;;;;;15.26;80.30;100651.83;1670185;85;27569;-77
2021/07/20 04:13:38;;;;;;;16.40;9.18;;;;;;;15.33;80.67;100653.42;1725934;82;25861;-77
2021/07/20 04:16:25;;;;;;;18.87;10.28;;;;;;;15.39;80.60;100655.80;1668577;84;25853;-77
2021/07/20 04:18:53;;;;;;;14.87;10.88;;;;;;;15.46;80.89;100652.58;1662099;83;25777;-79
2021/07/20 04:21:22;;;;;;;15.25;9.75;;;;;;;15.53;81.01;100645.25;1687273;83;25808;-78
2021/07/20 04:23:51;;;;;;;14.68;9.23;;;;;;;15.60;81.16;100647.91;1709561;83;27589;-78
2021/07/20 04:26:25;;;;;;;14.58;9.33;;;;;;;15.63;81.40;100646.94;1697828;82;26033;-78
2021/07/20 04:28:52;;;;;;;19.30;9.93;;;;;;;15.63;81.32;100643.43;1672537;84;25770;-78
2021/07/20 04:31:23;;;;;;;18.82;10.30;;;;;;;15.69;81.53;100650.66;1702694;84;26512;-78
2021/07/20 04:33:50;;;;;;;;;;;;;;;15.76;81.78;100648.20;1705273;84;25780;-77
2021/07/20 04:36:29;;;;;;;15.08;9.60;;;;;;;15.85;82.18;100648.75;1687773;83;28459;-78
2021/07/20 04:39:01;;;;;;;14.13;10.20;;;;;;;15.92;82.08;100647.67;1697604;82;26466;-77
2021/07/20 04:41:28;;;;;;;15.75;9.25;;;;;;;15.99;82.21;100644.41;1723220;82;25963;-79
2021/07/20 04:43:55;;;;;;;16.45;9.43;;;;;;;16.10;82.39;100652.31;1676447;84;25846;-78
2021/07/20 04:46:24;;;;;;;14.53;10.00;;;;;;;16.18;82.42;100649.32;1671098;84;26004;-77
2021/07/20 04:48:53;;;;;;;17.50;9.60;;;;;;;16.25;82.40;100654.15;1664025;84;28382;-79
2021/07/20 04:51:26;;;;;;;16.75;9.83;;;;;;;16.32;82.52;100651.35;1702381;83;25909;-78
2021/07/20 04:53:54;;;;;;;15.18;10.55;;;;;;;16.41;82.62;100658.97;1689343;83;25826;-77
2021/07/20 04:56:24;;;;;;;18.05;10.30;;;;;;;16.45;82.39;100654.77;1673940;82;25762;-77
2021/07/20 04:58:52;;;;;;;;;;;;;;;16.50;82.29;100663.59;1722060;82;25903;-78
2021/07/20 05:01:21;;;;;;;12.35;9.30;;;;;;;16.55;82.62;100651.59;1710814;83;28250;-78
2021/07/20 05:03:50;;;;;;;12.68;9.15;;;;;;;16.60;82.45;100651.73;1657841;82;25838;-78
2021/07/20 05:06:20;;;;;;;13.45;9.15;;;;;;;16.67;82.48;100656.03;1708408;82;25837;-77
2021/07/20 05:08:51;;;;;;;14.13;8.30;;;;;;;16.77;82.61;100658.19;1694731;83;26548;-78
2021/07/20 05:11:21;;;;;;;15.00;8.40;;;;;;;16.85;82.49;100652.50;1699069;83;25895;-79
2021/07/20 05:13:49;;;;;;;14.90;9.00;;;;;;;16.93;82.49;100657.09;1660110;83;27692;-78
2021/07/20 05:16:18;;;;;;;14.60;8.43;;;;;;;17.04;82.47;100656.02;1695110;83;26513;-77
2021/07/20 05:18:48;;;;;;;12.33;8.00;;;;;;;17.11;82.34;100657.56;1700406;83;26238;-79
2021/07/20 05:21:30;;;;;;;11.15;8.20;;;;;;;17.21;82.25;100663.29;1673037;83;25873;-78
2021/07/20 05:23:58;;;;;;;12.45;7.33;;;;;;;17.32;81.87;100667.10;1677501;83;26029;-79
2021/07/20 05:26:45;;;;;;;13.35;7.75;;;;;;;17.36;82.12;100675.89;1698224;82;27509;-78
2021/07/20 05:29:17;;;;;;;14.33;8.75;;;;;;;17.40;81.77;100669.48;1719496;83;26529;-79
2021/07/20 05:31:48;;;;;;;10.63;8.05;;;;;;;17.44;81.83;100681.51;1713217;82;25815;-78
2021/07/20 05:34:16;;;;;;;11.73;7.22;;;;;;;17.52;81.91;100677.98;1662358;84;26475;-78
2021/07/20 05:36:44;;;;;;;11.28;7.33;;;;;;;17.58;81.66;100674.87;1640649;83;25871;-79
2021/07/20 05:39:14;;;;;;;9.95;7.80;;;;;;;17.66;81.63;100674.56;1672570;84;28399;-79
2021/07/20 05:41:43;;;;;;;11.05;7.70;;;;;;;17.81;82.07;100675.48;1692324;83;25993;-78
2021/07/20 05:44:13;;;;;;;13.08;8.00;;;;;;;17.95;82.00;100676.91;1651093;82;25940;-78
2021/07/20 05:46:43;;;;;;;10.35;7.40;;;;;;;18.04;81.45;100678.23;1678805;84;26420;-77
2021/07/20 05:49:12;;;;;;;10.88;7.90;;;;;;;18.13;81.50;100682.27;1646636;84;26331;-79
2021/07/20 05:51:41;;;;;;;13.43;7.08;;;;;;;18.20;81.22;100682.44;1677556;83;28143;-78
2021/07/20 05:54:11;;;;;;;12.53;7.80;;;;;;;18.31;81.39;100674.84;1675835;83;25807;-78
2021/07/20 05:56:42;;;;;;;9.37;6.53;;;;;;;18.44;81.12;100680.07;1651593;83;25918;-78
2021/07/20 05:59:19;;;;;;;10.38;7.22;;;;;;;18.55;81.04;100673.52;1692005;83;26690;-79
2021/07/20 06:01:48;;;;;;;10.95;7.12;;;;;;;18.65;81.26;100671.05;1700826;83;26662;-79
2021/07/20 06:04:18;;;;;;;13.22;7.22;;;;;;;18.73;80.72;100663.89;1695125;82;28188;-78
2021/07/20 06:06:50;;;;;;;13.85;7.10;;;;;;;18.79;80.59;100668.36;1670951;82;25680;-78
2021/07/20 06:09:19;;;;;;;10.28;6.05;;;;;;;18.91;80.55;100669.98;1665856;84;25803;-78
2021/07/20 06:11:48;;;;;;;10.75;7.40;;;;;;;18.98;80.23;100672.05;1705015;83;25939;-78
2021/07/20 06:14:18;;;;;;;9.83;6.30;;;;;;;19.05;80.04;100665.13;1640001;84;25927;-78
2021/07/20 06:16:45;;;;;;;12.90;7.03;;;;;;;19.11;79.93;100669.59;1700804;83;27454;-78
2021/07/20 06:19:12;;;;;;;8.43;5.90;;;;;;;19.19;79.91;100674.11;1697711;83;26428;-77
2021/07/20 06:21:42;;;;;;;9.35;5.78;;;;;;;19.32;80.35;100674.36;1718202;83;25476;-78
2021/07/20 06:24:13;;;;;;;11.78;5.53;;;;;;;19.44;80.36;100671.08;1662838;84;25873;-80
2021/07/20 06:26:42;;;;;;;9.48;5.90;;;;;;;19.52;79.39;100666.64;1669984;84;25898;-78
2021/07/20 06:29:10;;;;;;;8.58;5.05;;;;;;;19.61;80.08;100664.35;1665908;84;27456;-77
2021/07/20 06:31:44;;;;;;;10.10;5.53;;;;;;;19.70;79.65;100662.34;1703836;83;25962;-78
2021/07/20 06:34:13;;;;;;;11.33;5.90;;;;;;;19.75;79.83;100654.81;1659639;83;25890;-78
2021/07/20 06:36:43;;;;;;;10.28;5.95;;;;;;;19.83;79.42;100652.52;1678434;83;25758;-78
2021/07/20 06:39:13;;;;;;;10.03;5.10;;;;;;;19.90;79.24;100662.70;1658143;83;25911;-77
2021/07/20 06:41:40;;;;;;;9.58;4.75;;;;;;;19.99;79.66;100662.56;1694808;83;27473;-78
2021/07/20 06:44:08;;;;;;;8.80;4.83;;;;;;;20.12;80.07;100660.61;1629198;83;26634;-79
2021/07/20 06:46:37;;;;;;;9.00;4.60;;;;;;;20.22;78.59;100666.23;1676359;83;25954;-78
2021/07/20 06:49:05;;;;;;;5.97;3.95;;;;;;;20.29;79.04;100665.53;1667696;83;26614;-78
2021/07/20 06:51:32;;;;;;;6.75;3.40;;;;;;;20.35;77.83;100665.90;1698048;83;25796;-78
2021/07/20 06:53:59;;;;;;;8.85;4.03;;;;;;;20.40;77.84;100666.78;1691713;83;28254;-78
2021/07/20 06:56:39;;;;;;;5.95;3.37;;;;;;;20.45;77.56;100672.31;1649895;83;25895;-79
2021/07/20 06:59:08;;;;;;;5.53;3.90;;;;;;;20.50;76.98;100664.23;1698671;83;26046;-78
2021/07/20 07:01:37;;;;;;;6.50;4.22;;;;;;;20.54;76.92;100657.22;1676172;83;25867;-78
2021/07/20 07:04:21;;;;;;;7.78;4.90;;;;;;;20.62;77.11;100654.05;1720256;82;25863;-79
2021/07/20 07:06:51;;;;;;;7.20;4.33;;;;;;;20.72;77.24;100652.83;1689497;82;27514;-78
2021/07/20 07:09:20;;;;;;;6.83;4.07;;;;;;;20.86;77.02;100649.73;1670669;82;25753;-78
2021/07/20 07:11:49;;;;;;;8.50;3.90;;;;;;;20.97;77.04;100650.16;1680153;82;25951;-78
2021/07/20 07:14:16;;;;;;;4.67;3.30;;;;;;;21.07;77.07;100648.94;1713866;82;26478;-79
2021/07/20 07:16:47;;;;;;;4.75;3.37;;;;;;;21.10;75.38;100650.64;1656779;81;25840;-78
2021/07/20 07:19:15;;;;;;;4.67;3.22;;;;;;;21.18;75.58;100652.08;1706025;82;28214;-78
2021/07/20 07:21:45;;;;;;;4.62;3.10;;;;;;;21.23;75.09;100650.78;1664630;83;25909;-78
2021/07/20 07:24:17;;;;;;;4.72;2.92;;;;;;;21.33;75.54;100653.61;1703615;84;25823;-79
2021/07/20 07:26:46;;;;;;;6.00;3.25;;;;;;;21.45;74.45;100656.47;1702606;83;26505;-79
2021/07/20 07:29:16;;;;;;;8.95;2.92;;;;;;;21.58;74.37;100659.89;1677130;82;25869;-79
2021/07/20 07:31:48;;;;;;;4.23;3.10;;;;;;;21.71;74.19;100664.90;1678789;82;27224;-78
2021/07/20 07:34:16;;;;;;;6.65;3.52;;;;;;;21.73;73.73;100662.73;1704966;82;26580;-79
2021/07/20 07:36:46;;;;;;;5.00;2.90;;;;;;;21.68;72.67;100659.45;1703170;84;25857;-79
2021/07/20 07:39:15;;;;;;;3.30;2.42;;;;;;;21.65;72.82;100655.03;1698029;81;25872;-79
2021/07/20 07:41:45;;;;;;;6.05;2.80;;;;;;;21.75;73.47;100656.52;1678177;82;25855;-79
2021/07/20 07:44:16;;;;;;;4.65;2.90;;;;;;;21.83;71.24;100653.34;1703341;82;28342;-78
2021/07/20 07:46:46;;;;;;;5.92;3.30;;;;;;;21.89;71.10;100650.40;1690441;83;25902;-78
2021/07/20 07:49:14;;;;;;;4.75;2.52;;;;;;;21.95;71.28;100645.27;1704831;82;25908;-78
2021/07/20 07:51:44;;;;;;;4.62;2.72;;;;;;;22.05;70.65;100647.23;1686559;83;25842;-79
2021/07/20 07:54:15;;;;;;;3.47;2.58;;;;;;;22.13;71.21;100650.87;1706393;82;25286;-80
2021/07/20 07:56:44;;;;;;;4.75;2.47;;;;;;;22.18;70.23;100646.27;1664208;82;27535;-79
2021/07/20 07:59:14;;;;;;;8.18;3.15;;;;;;;22.28;71.27;100644.16;1672704;84;25800;-79
2021/07/20 08:01:46;;;;;;;3.67;2.60;;;;;;;22.32;69.57;100650.73;1684302;82;25875;-79
2021/07/20 08:04:20;;;;;;;4.53;2.52;;;;;;;22.30;69.09;100653.45;1731190;81;25794;-79
2021/07/20 08:06:48;;;;;;;2.85;2.45;;;;;;;22.35;69.35;100649.39;1734253;81;25795;-78
2021/07/20 08:09:18;;;;;;;2.40;2.20;;;;;;;22.46;69.44;100649.72;1712239;82;27588;-79
2021/07/20 08:11:47;;;;;;;4.72;2.10;;;;;;;22.57;67.03;100652.26;1693148;82;25421;-78
2021/07/20 08:14:15;;;;;;;3.80;2.60;;;;;;;22.60;66.80;100652.31;1734875;81;25867;-78
2021/07/20 08:16:47;;;;;;;3.12;2.12;;;;;;;22.58;67.31;100654.45;1704988;80;25963;-79
2021/07/20 08:19:15;;;;;;;3.62;2.52;;;;;;;22.58;67.31;100648.99;1713725;82;26036;-79
2021/07/20 08:21:45;;;;;;;3.87;2.90;;;;;;;22.63;68.55;100646.30;1704855;80;27566;-79
2021/07/20 08:24:14;;;;;;;5.75;2.58;;;;;;;22.81;67.99;100647.23;1735300;81;25809;-79
2021/07/20 08:26:51;;;;;;;6.58;2.85;;;;;;;22.91;66.67;100646.73;1685560;80;26057;-78
2021/07/20 08:29:27;;;;;;;4.50;2.47;;;;;;;22.82;65.20;100652.96;1751380;80;26603;-79
2021/07/20 08:32:02;;;;;;;6.50;2.60;;;;;;;22.62;65.76;100659.16;1729389;81;26238;-79
2021/07/20 08:34:37;;;;;;;4.85;2.70;;;;;;;22.44;65.19;100658.71;1730989;81;27612;-78
2021/07/20 08:37:05;;;;;;;3.75;2.60;;;;;;;22.31;66.26;100659.16;1716700;81;27081;-78
2021/07/20 08:39:33;;;;;;;4.12;2.67;;;;;;;22.25;66.60;100665.14;1713044;82;26484;-79
2021/07/20 08:42:30;;;;;;;4.60;2.72;;;;;;;22.17;66.95;100665.09;1685498;81;26466;-78
2021/07/20 08:45:23;;;;;;;4.87;2.50;;;;;;;22.12;66.65;100663.69;1731377;82;25823;-78
2021/07/20 08:48:18;;;;;;;4.50;2.62;;;;;;;22.07;67.45;100661.44;1689604;82;27656;-79
2021/07/20 08:51:02;;;;;;;2.65;2.35;;;;;;;22.04;67.25;100654.63;1734457;82;25890;-78
2021/07/20 08:53:53;;;;;;;3.70;2.27;;;;;;;22.08;67.84;100652.19;1682761;82;26572;-78
2021/07/20 08:56:23;;;;;;;3.65;2.62;;;;;;;22.14;67.86;100648.41;1736529;82;26610;-78
2021/07/20 08:58:56;;;;;;;4.78;2.52;;;;;;;22.21;67.64;100650.37;1711361;82;25829;-79
2021/07/20 09:01:52;;;;;;;3.33;2.62;;;;;;;22.25;66.73;100647.41;1708830;81;27470;-78
2021/07/20 09:04:24;;;;;;;3.65;2.37;;;;;;;22.35;66.91;100645.30;1738789;80;25806;-78
2021/07/20 09:07:02;;;;;;;2.15;1.95;;;;;;;22.49;65.42;100644.58;1759030;80;25782;-78
2021/07/20 09:09:33;;;;;;;4.40;2.60;;;;;;;22.51;63.39;100638.30;1729213;80;26416;-78
2021/07/20 09:12:05;;;;;;;4.17;2.37;;;;;;;22.56;62.13;100639.68;1736969;81;25931;-78
2021/07/20 09:14:52;;;;;;;3.10;2.35;;;;;;;22.67;63.58;100644.15;1711542;81;28011;-79
2021/07/20 09:18:10;;;;;;;2.70;2.10;;;;;;;22.79;62.35;100635.75;1701360;82;26163;-79
2021/07/20 09:20:39;;;;;;;3.85;2.02;;;;;;;22.88;61.56;100634.16;1727518;82;25814;-79
2021/07/20 09:23:17;;;;;;;2.45;1.90;;;;;;;22.88;61.72;100639.06;1694912;81;25937;-79
2021/07/20 09:26:07;;;;;;;4.53;2.50;;;;;;;22.89;61.77;100639.35;1678821;81;26159;-79
2021/07/20 09:28:57;;;;;;;2.62;2.08;;;;;;;22.83;61.40;100641.79;1755464;80;27634;-79
2021/07/20 09:31:50;;;;;;;2.33;2.00;;;;;;;22.79;61.11;100638.48;1739979;80;35343;-78
2021/07/20 09:34:31;;;;;;;3.42;2.17;;;;;;;22.77;61.63;100640.66;1740144;81;25739;-79
2021/07/20 09:37:06;;;;;;;3.10;2.20;;;;;;;22.73;61.49;100638.98;1693471;80;25937;-78
2021/07/20 09:39:56;;;;;;;2.42;2.22;;;;;;;22.70;61.99;100636.80;1734833;81;26523;-78
2021/07/20 09:42:46;;;;;;;3.65;2.60;;;;;;;22.66;62.19;100637.59;1722365;80;27449;-78
2021/07/20 09:45:19;;;;;;;4.17;2.00;;;;;;;22.60;61.99;100640.03;1748364;80;25775;-79
2021/07/20 09:48:22;;;;;;;2.40;2.20;;;;;;;22.55;62.85;100643.52;1709340;82;25899;-79
2021/07/20 09:50:53;;;;;;;3.25;1.70;;;;;;;22.55;62.72;100640.78;1738283;81;25938;-79
2021/07/20 09:53:34;;;;;;;2.85;2.00;;;;;;;22.52;62.61;100636.41;1718617;81;25968;-78
2021/07/20 09:56:27;;;;;;;3.25;2.00;;;;;;;22.50;62.50;100635.28;1749895;80;28347;-79
2021/07/20 09:59:38;;;;;;;2.77;2.17;;;;;;;22.50;62.80;100632.55;1729682;80;25861;-79
2021/07/20 10:02:10;;;;;;;2.25;1.70;;;;;;;22.48;62.79;100626.54;1736951;81;25786;-79
2021/07/20 10:04:51;;;;;;;2.67;2.25;;;;;;;22.47;63.04;100624.91;1728491;80;25819;-78
2021/07/20 10:07:35;;;;;;;4.20;2.10;;;;;;;22.49;63.41;100628.73;1752303;80;25787;-79
2021/07/20 10:10:15;;;;;;;2.60;2.08;;;;;;;22.49;63.11;100630.09;1669574;83;28170;-79
2021/07/20 10:13:01;;;;;;;2.50;1.82;;;;;;;22.45;62.94;100627.62;1712174;83;26539;-78
2021/07/20 10:15:51;;;;;;;3.47;2.20;;;;;;;22.47;62.82;100622.18;1702980;82;25968;-79
2021/07/20 10:18:23;;;;;;;2.75;2.00;;;;;;;22.53;63.33;100618.92;1707664;83;26488;-78
2021/07/20 10:20:58;;;;;;;4.62;2.25;;;;;;;22.57;62.86;100618.13;1676603;83;25878;-79
2021/07/20 10:23:57;;;;;;;3.98;2.20;;;;;;;22.61;63.02;100618.45;1677768;83;28164;-79
2021/07/20 10:26:51;;;;;;;3.15;2.02;;;;;;;22.64;63.08;100611.93;1685137;83;25877;-79
2021/07/20 10:29:23;;;;;;;2.95;1.77;;;;;;;22.69;62.54;100610.56;1704963;83;26560;-78
2021/07/20 10:31:58;;;;;;;5.95;2.05;;;;;;;22.74;62.03;100614.70;1662314;83;25933;-79
2021/07/20 10:34:28;;;;;;;3.25;2.00;;;;;;;22.77;61.94;100609.25;1679798;83;26591;-78
2021/07/20 10:37:06;;;;;;;2.87;2.20;;;;;;;22.84;62.05;100610.64;1638266;83;27556;-78
2021/07/20 10:39:41;;;;;;;5.45;1.87;;;;;;;23.06;63.71;100613.72;1666316;82;25966;-78
2021/07/20 10:42:29;;;;;;;5.92;2.10;;;;;;;23.30;63.56;100608.89;1709793;83;25886;-78
2021/07/20 10:45:04;;;;;;;2.37;1.70;;;;;;;23.39;60.16;100606.48;1684336;83;25771;-77
2021/07/20 10:48:05;;;;;;;3.90;2.87;;;;;;;23.46;60.75;100606.48;1678117;84;43842;-77
2021/07/20 10:50:56;;;;;;;6.70;2.60;;;;;;;23.54;59.85;100600.50;1672757;83;27331;-78
2021/07/20 10:53:37;;;;;;;2.35;1.55;;;;;;;23.61;58.87;100594.73;1696605;82;25522;-79
2021/07/20 10:56:27;;;;;;;3.10;1.55;;;;;;;23.63;58.59;100604.31;1698483;83;26242;-79
2021/07/20 10:59:21;;;;;;;2.62;1.70;;;;;;;23.60;59.03;100602.67;1681524;84;25930;-78
2021/07/20 11:02:11;;;;;;;5.40;1.98;;;;;;;23.58;58.63;100603.50;1706006;82;25932;-78
2021/07/20 11:05:03;;;;;;;3.17;1.98;;;;;;;23.53;58.44;100600.20;1714135;82;27567;-78
2021/07/20 11:07:55;;;;;;;4.97;2.40;;;;;;;23.53;58.39;100604.84;1710762;82;26163;-78
2021/07/20 11:10:31;;;;;;;3.27;1.90;;;;;;;23.53;59.38;100602.11;1715777;82;25751;-78
2021/07/20 11:13:01;;;;;;;3.70;2.00;;;;;;;23.57;59.18;100605.41;1682216;83;26270;-78
2021/07/20 11:15:30;;;;;;;2.55;1.98;;;;;;;23.60;59.27;100600.77;1657912;83;25989;-78
2021/07/20 11:18:07;;;;;;;3.25;1.75;;;;;;;23.63;58.41;100604.88;1647712;84;28008;-77
2021/07/20 11:20:36;;;;;;;4.72;2.20;;;;;;;23.64;58.50;100596.94;1692317;84;25828;-78
2021/07/20 11:23:05;;;;;;;3.87;1.90;;;;;;;23.69;59.11;100595.02;1672291;84;25908;-78
2021/07/20 11:25:34;;;;;;;2.67;1.40;;;;;;;23.77;58.07;100590.92;1661083;82;26593;-78
2021/07/20 11:28:02;;;;;;;2.92;1.95;;;;;;;23.94;58.47;100598.84;1701554;83;25996;-77
2021/07/20 11:30:32;;;;;;;3.62;1.45;;;;;;;23.99;55.31;100591.48;1691717;84;27445;-78
2021/07/20 11:33:13;;;;;;;5.25;1.75;;;;;;;24.01;55.54;100597.48;1691446;83;25950;-78
2021/07/20 11:35:42;;;;;;;2.98;1.87;;;;;;;24.10;57.11;100597.79;1679419;83;25969;-78
2021/07/20 11:38:13;;;;;;;2.33;1.55;;;;;;;24.14;54.94;100596.14;1643836;84;25858;-78
2021/07/20 11:41:09;;;;;;;2.70;1.55;;;;;;;24.06;54.79;100586.55;1694635;83;25850;-77
2021/07/20 11:44:10;;;;;;;2.08;1.60;;;;;;;24.05;56.17;100586.30;1723248;82;27549;-78
2021/07/20 11:46:56;;;;;;;4.65;1.90;;;;;;;24.11;56.97;100589.84;1665667;84;25870;-78
2021/07/20 11:49:37;;;;;;;4.60;1.57;;;;;;;24.25;55.98;100583.51;1681405;83;25856;-78
2021/07/20 11:52:09;;;;;;;4.75;1.62;;;;;;;24.22;54.58;100583.25;1700812;83;26745;-78
2021/07/20 11:55:12;;;;;;;4.65;2.30;;;;;;;24.21;55.12;100580.23;1679218;83;26637;-78
2021/07/20 11:58:17;;;;;;;3.72;2.80;;;;;;;24.31;54.47;100572.84;1713121;83;27547;-78